Time;durP1;ratioP1;P1;durP2;ratioP2;P2;SDS_P1;SDS_P2;PMS_P1;PMS_P2;Temp;Humidity;BMP_temperature;BMP_pressure;BME280_temperature;BME280_humidity;BME280_pressure;Samples;Min_cycle;Max_cycle;Signal;HPM_P1;HPM_P2
2022/10/08 00:00:10;;;;;;;30.90;28.10;;;;;;;15.15;70.46;100650.21;108738;1278;21956;-84
2022/10/08 00:03:00;;;;;;;38.30;34.90;;;;;;;15.14;70.46;100650.98;108726;1279;22708;-84
2022/10/08 00:05:37;;;;;;;43.00;39.00;;;;;;;15.13;70.54;100643.49;108774;1275;21938;-83
2022/10/08 00:08:09;;;;;;;50.60;46.00;;;;;;;15.15;70.67;100640.73;108719;1272;23061;-83
2022/10/08 00:10:38;;;;;;;50.90;46.00;;;;;;;15.17;70.67;100639.41;108717;1275;21982;-84
2022/10/08 00:13:13;;;;;;;50.10;45.60;;;;;;;15.18;70.60;100633.77;108726;1277;22863;-83
2022/10/08 00:15:42;;;;;;;51.70;47.50;;;;;;;15.19;70.55;100632.98;108401;1280;22376;-83
2022/10/08 00:18:16;;;;;;;58.30;53.20;;;;;;;15.22;70.68;100630.43;108127;1284;23777;-83
2022/10/08 00:20:48;;;;;;;57.20;52.10;;;;;;;15.21;70.44;100627.46;108204;1286;22074;-83
2022/10/08 00:23:18;;;;;;;58.90;53.60;;;;;;;15.19;70.46;100626.69;108178;1283;23795;-83
2022/10/08 00:25:47;;;;;;;64.30;58.70;;;;;;;15.20;70.60;100623.31;107733;1289;23121;-84
2022/10/08 00:28:16;;;;;;;59.70;54.20;;;;;;;15.20;70.61;100619.98;107078;1298;23697;-83
2022/10/08 00:30:46;;;;;;;60.70;55.30;;;;;;;15.21;70.55;100623.07;107716;1298;23720;-87
2022/10/08 00:33:16;;;;;;;59.50;54.20;;;;;;;15.21;70.48;100622.92;107716;1298;21970;-88
2022/10/08 00:35:48;;;;;;;61.20;55.50;;;;;;;15.21;70.49;100618.16;108087;1285;21948;-87
2022/10/08 00:38:21;;;;;;;63.10;57.30;;;;;;;15.22;70.48;100616.02;108628;1289;21924;-87
2022/10/08 00:40:53;;;;;;;65.50;59.40;;;;;;;15.25;70.50;100619.75;108469;1290;24322;-88
2022/10/08 00:43:44;;;;;;;62.80;57.10;;;;;;;15.25;70.43;100616.02;108399;1287;23069;-87
2022/10/08 00:46:30;;;;;;;59.40;54.10;;;;;;;15.27;70.53;100608.20;108915;1278;23768;-85
2022/10/08 00:49:16;;;;;;;56.10;50.90;;;;;;;15.30;70.42;100603.52;108828;1280;23011;-86
2022/10/08 00:51:54;;;;;;;56.80;51.50;;;;;;;15.31;70.43;100605.36;108804;1280;21946;-86
2022/10/08 00:54:25;;;;;;;56.40;51.30;;;;;;;15.34;70.43;100599.27;108615;1280;23615;-84
2022/10/08 00:56:54;;;;;;;55.20;50.20;;;;;;;15.36;70.29;100597.04;108485;1282;21934;-85
2022/10/08 00:59:23;;;;;;;58.80;53.40;;;;;;;15.35;70.09;100591.48;108540;1284;23590;-85
2022/10/08 01:01:52;;;;;;;56.50;51.60;;;;;;;15.33;69.99;100589.67;108374;1285;21933;-85
2022/10/08 01:04:23;;;;;;;58.00;52.60;;;;;;;15.29;70.01;100590.23;108750;1284;21951;-87
2022/10/08 01:07:02;;;;;;;57.10;51.90;;;;;;;15.29;70.15;100588.64;109193;1280;21965;-87
2022/10/08 01:10:08;;;;;;;55.40;50.40;;;;;;;15.31;70.22;100589.77;109277;1284;21967;-87
2022/10/08 01:13:16;;;;;;;55.60;50.50;;;;;;;15.33;70.24;100587.41;108952;1282;22707;-87
2022/10/08 01:15:59;;;;;;;51.80;47.20;;;;;;;15.33;70.25;100587.93;109328;1278;24011;-88
2022/10/08 01:19:22;;;;;;;52.50;47.80;;;;;;;15.35;70.18;100587.61;109338;1280;23625;-86
2022/10/08 01:22:26;;;;;;;50.50;45.70;;;;;;;15.34;70.11;100587.35;108400;1284;21963;-86
2022/10/08 01:28:37;;;;;;;50.70;46.10;;;;;;;15.33;70.00;100586.14;108422;1286;21979;-85
2022/10/08 01:31:17;;;;;;;49.60;45.00;;;;;;;15.30;70.06;100587.01;108141;1287;22011;-85
2022/10/08 01:34:08;;;;;;;48.90;44.70;;;;;;;15.27;70.01;100584.36;108285;1292;21952;-86
2022/10/08 01:36:46;;;;;;;47.40;42.90;;;;;;;15.30;70.09;100587.54;108452;1292;22777;-86
2022/10/08 01:39:24;;;;;;;44.10;40.10;;;;;;;15.32;70.01;100583.92;108138;1290;22053;-86
2022/10/08 01:42:01;;;;;;;46.00;41.70;;;;;;;15.34;69.91;100578.59;108129;1291;22040;-85
2022/10/08 01:44:59;;;;;;;42.80;38.70;;;;;;;15.34;69.90;100577.15;108463;1290;21962;-86
2022/10/08 01:47:43;;;;;;;43.50;39.50;;;;;;;15.32;69.97;100579.03;108099;1289;22028;-84
2022/10/08 01:50:19;;;;;;;37.60;34.20;;;;;;;15.34;69.99;100579.11;107707;1293;21967;-83
2022/10/08 01:52:58;;;;;;;36.70;33.00;;;;;;;15.36;69.99;100578.29;107901;1289;22506;-83
2022/10/08 01:55:36;;;;;;;30.00;27.30;;;;;;;15.35;69.99;100576.23;107504;1295;23017;-86
2022/10/08 01:58:11;;;;;;;23.90;21.80;;;;;;;15.36;70.08;100572.31;107590;1289;21985;-87
2022/10/08 02:06:54;;;;;;;21.20;19.00;;;;;;;15.39;69.97;100570.23;107787;1287;23880;-86
2022/10/08 02:09:28;;;;;;;16.80;15.20;;;;;;;15.42;69.90;100569.55;108153;1287;22218;-86
2022/10/08 02:11:57;;;;;;;17.10;15.20;;;;;;;15.46;69.85;100570.04;108291;1293;21937;-87
2022/10/08 02:14:28;;;;;;;18.80;17.10;;;;;;;15.49;69.71;100568.45;109021;1287;21941;-88
2022/10/08 02:17:34;;;;;;;19.70;16.40;;;;;;;15.50;69.55;100562.81;109488;1282;21942;-88
2022/10/08 02:20:46;;;;;;;19.70;16.00;;;;;;;15.49;69.50;100560.77;108985;1289;21947;-87
2022/10/08 02:24:01;;;;;;;16.20;14.50;;;;;;;15.49;69.59;100559.67;108576;1289;21967;-86
2022/10/08 02:26:41;;;;;;;20.30;15.40;;;;;;;15.50;69.51;100558.26;107933;1287;21961;-87
2022/10/08 02:29:19;;;;;;;16.10;14.50;;;;;;;15.53;69.45;100557.39;108271;1293;22107;-88
2022/10/08 02:32:01;;;;;;;16.00;14.30;;;;;;;15.56;69.40;100555.29;108578;1290;23156;-88
2022/10/08 02:34:44;;;;;;;18.00;16.30;;;;;;;15.57;69.26;100550.27;108939;1290;22006;-88
2022/10/08 02:37:21;;;;;;;17.90;16.20;;;;;;;15.60;69.05;100551.55;109436;1289;21954;-88
2022/10/08 02:39:58;;;;;;;23.40;18.20;;;;;;;15.60;68.94;100554.86;109669;1285;22123;-86
2022/10/08 02:42:31;;;;;;;20.00;18.10;;;;;;;15.61;68.79;100551.49;109608;1278;21960;-89
2022/10/08 02:45:17;;;;;;;24.00;21.70;;;;;;;15.62;68.73;100550.19;109816;1280;22632;-90
2022/10/08 02:47:55;;;;;;;20.00;18.10;;;;;;;15.62;68.72;100546.89;109784;1262;21939;-89
2022/10/08 02:50:27;;;;;;;20.20;17.90;;;;;;;15.59;68.65;100548.77;109660;1281;22423;-87
2022/10/08 02:52:57;;;;;;;20.90;18.80;;;;;;;15.56;68.62;100547.71;109649;1279;21991;-89
2022/10/08 02:55:40;;;;;;;20.60;18.70;;;;;;;15.55;68.73;100548.14;109715;1280;21930;-89
2022/10/08 02:58:11;;;;;;;21.00;18.70;;;;;;;15.52;68.74;100547.95;109768;1279;22623;-89
2022/10/08 03:00:57;;;;;;;18.20;16.30;;;;;;;15.52;68.74;100546.38;109591;1278;22060;-86
2022/10/08 03:03:54;;;;;;;18.40;16.70;;;;;;;15.44;68.88;100550.32;109059;1280;21949;-87
2022/10/08 03:06:30;;;;;;;19.20;17.30;;;;;;;15.40;68.95;100549.48;109047;1280;21922;-87
2022/10/08 03:09:01;;;;;;;19.20;17.20;;;;;;;15.38;69.02;100548.52;108944;1280;21952;-87
2022/10/08 03:11:34;;;;;;;21.30;18.90;;;;;;;15.37;69.04;100546.86;108968;1271;21896;-88
2022/10/08 03:14:11;;;;;;;22.50;20.20;;;;;;;15.32;68.85;100548.52;109223;1280;22764;-86
2022/10/08 03:16:45;;;;;;;22.10;19.70;;;;;;;15.29;69.09;100548.52;108980;1279;22042;-85
2022/10/08 03:19:17;;;;;;;23.10;20.60;;;;;;;15.29;69.20;100545.38;108663;1280;21967;-86
2022/10/08 03:21:51;;;;;;;25.40;21.20;;;;;;;15.25;69.05;100544.51;108700;1280;22353;-85
2022/10/08 03:24:20;;;;;;;22.80;20.70;;;;;;;15.21;69.20;100543.65;108578;1280;23124;-84
2022/10/08 03:26:52;;;;;;;26.20;22.60;;;;;;;15.19;69.23;100545.20;108544;1280;21986;-84
2022/10/08 03:29:21;;;;;;;24.10;21.80;;;;;;;15.14;69.27;100544.92;108615;1280;21949;-84
2022/10/08 03:31:50;;;;;;;22.40;20.00;;;;;;;15.12;69.39;100543.14;108591;1280;23595;-84
2022/10/08 03:34:19;;;;;;;22.70;20.20;;;;;;;15.11;69.50;100542.15;108565;1280;24218;-84
2022/10/08 03:36:48;;;;;;;21.70;19.80;;;;;;;15.10;69.61;100541.65;108616;1280;21947;-84
2022/10/08 03:39:21;;;;;;;21.50;19.30;;;;;;;15.08;69.63;100538.59;108553;1279;22091;-84
2022/10/08 03:41:50;;;;;;;24.30;21.90;;;;;;;15.06;69.57;100536.09;108484;1280;21947;-83
2022/10/08 03:44:19;;;;;;;41.40;37.40;;;;;;;15.01;69.45;100531.96;108699;1278;22437;-83
2022/10/08 03:46:48;;;;;;;51.20;46.50;;;;;;;14.96;69.53;100532.40;108562;1279;21931;-84
2022/10/08 03:49:17;;;;;;;53.30;48.60;;;;;;;14.89;69.57;100531.93;108571;1280;21931;-83
2022/10/08 03:51:46;;;;;;;57.80;52.60;;;;;;;14.83;69.73;100531.84;108563;1280;22308;-84
2022/10/08 03:54:15;;;;;;;63.40;57.70;;;;;;;14.78;69.89;100529.81;108743;1280;21950;-84
2022/10/08 03:56:44;;;;;;;69.80;63.70;;;;;;;14.74;69.97;100533.55;108596;1280;21962;-84
2022/10/08 03:59:13;;;;;;;69.00;63.10;;;;;;;14.71;70.21;100535.12;108549;1281;21933;-84
2022/10/08 04:01:42;;;;;;;64.60;59.00;;;;;;;14.71;70.40;100535.47;108448;1280;21939;-84
2022/10/08 04:04:16;;;;;;;70.60;64.30;;;;;;;14.72;70.53;100534.36;108593;1280;22006;-83
2022/10/08 04:06:52;;;;;;;64.00;58.50;;;;;;;14.74;70.51;100533.40;108496;1280;21930;-84
2022/10/08 04:09:21;;;;;;;62.40;57.10;;;;;;;14.73;70.42;100531.50;108514;1280;22075;-85
2022/10/08 04:11:52;;;;;;;61.50;56.20;;;;;;;14.72;70.35;100533.47;108294;1283;21947;-85
2022/10/08 04:14:22;;;;;;;67.50;61.90;;;;;;;14.70;70.36;100535.66;108388;1279;22031;-85
2022/10/08 04:16:54;;;;;;;62.70;57.00;;;;;;;14.67;70.39;100533.02;108435;1282;23020;-85
2022/10/08 04:19:23;;;;;;;55.70;50.70;;;;;;;14.63;70.43;100531.33;108452;1284;23022;-85
2022/10/08 04:21:54;;;;;;;46.10;41.80;;;;;;;14.57;70.49;100531.97;108094;1284;23001;-84
2022/10/08 04:24:25;;;;;;;36.60;33.50;;;;;;;14.51;70.59;100537.86;108302;1283;22237;-83
2022/10/08 04:26:56;;;;;;;32.40;29.60;;;;;;;14.46;70.72;100534.79;108289;1283;21964;-83
2022/10/08 04:29:28;;;;;;;26.90;24.30;;;;;;;14.43;70.91;100530.92;108293;1283;21936;-83
2022/10/08 04:31:57;;;;;;;25.00;22.80;;;;;;;14.40;70.98;100531.57;108300;1283;24320;-83
2022/10/08 04:34:28;;;;;;;22.30;20.10;;;;;;;14.39;71.13;100533.05;107836;1289;21982;-84
2022/10/08 04:37:03;;;;;;;21.90;19.80;;;;;;;14.35;71.24;100533.40;108144;1286;23052;-84
2022/10/08 04:39:32;;;;;;;21.00;18.90;;;;;;;14.31;71.40;100527.68;108147;1281;21964;-84
2022/10/08 04:42:04;;;;;;;20.80;18.90;;;;;;;14.31;71.44;100528.52;108247;1286;21951;-84
2022/10/08 04:44:35;;;;;;;;;;;;;;;14.33;71.51;100530.18;107526;1292;23651;-84
2022/10/08 04:47:04;;;;;;;21.30;18.30;;;;;;;14.22;71.80;100530.23;107910;1290;23778;-84
2022/10/08 04:49:33;;;;;;;18.60;16.60;;;;;;;14.19;71.74;100529.45;107547;1290;23030;-84
2022/10/08 04:52:03;;;;;;;17.10;15.40;;;;;;;14.19;71.84;100530.90;107597;1286;21945;-84
2022/10/08 04:54:32;;;;;;;20.90;16.50;;;;;;;14.18;71.84;100530.95;108119;1286;22005;-84
2022/10/08 04:57:01;;;;;;;19.60;17.60;;;;;;;14.17;71.93;100529.44;108145;1286;22036;-83
2022/10/08 04:59:30;;;;;;;18.80;16.90;;;;;;;14.15;72.02;100527.08;108345;1286;22274;-84
2022/10/08 05:01:59;;;;;;;25.00;18.40;;;;;;;14.15;72.05;100527.95;108310;1286;23772;-85
2022/10/08 05:04:31;;;;;;;21.80;17.00;;;;;;;14.13;72.20;100533.64;108243;1281;21994;-85
2022/10/08 05:07:00;;;;;;;18.40;16.60;;;;;;;14.12;72.17;100530.90;108101;1286;21964;-84
2022/10/08 05:09:32;;;;;;;18.30;16.60;;;;;;;14.13;72.18;100526.09;108075;1286;22015;-83
2022/10/08 05:12:01;;;;;;;18.50;16.70;;;;;;;14.10;72.25;100525.89;108366;1284;23594;-83
2022/10/08 05:14:30;;;;;;;20.20;17.60;;;;;;;14.10;72.34;100525.91;108346;1286;21969;-83
2022/10/08 05:16:58;;;;;;;18.90;17.00;;;;;;;14.09;72.36;100520.89;108223;1286;23739;-88
2022/10/08 05:19:30;;;;;;;18.90;16.90;;;;;;;14.05;72.40;100515.66;108252;1283;21928;-81
2022/10/08 05:21:59;;;;;;;19.70;17.90;;;;;;;14.09;72.50;100523.72;108256;1286;21959;-81
2022/10/08 05:24:35;;;;;;;22.40;16.90;;;;;;;14.13;72.62;100530.51;108056;1286;21961;-81
2022/10/08 05:27:13;;;;;;;;;;;;;;;14.17;72.71;100529.96;108136;1280;23564;-80
2022/10/08 05:29:45;;;;;;;20.40;17.60;;;;;;;14.10;72.90;100532.38;108278;1280;21988;-80
2022/10/08 05:32:14;;;;;;;17.30;15.60;;;;;;;14.13;72.92;100534.15;108442;1280;21975;-80
2022/10/08 05:34:45;;;;;;;19.10;17.10;;;;;;;14.18;72.81;100537.20;108520;1280;21984;-80
2022/10/08 05:37:19;;;;;;;20.20;18.20;;;;;;;14.23;72.77;100538.58;107985;1285;23611;-78
2022/10/08 05:39:55;;;;;;;19.70;17.60;;;;;;;14.26;72.70;100539.63;107533;1292;23094;-80
2022/10/08 05:42:24;;;;;;;19.70;17.70;;;;;;;14.28;72.61;100540.41;107436;1292;21956;-81
2022/10/08 05:44:56;;;;;;;21.60;19.50;;;;;;;14.32;72.51;100539.00;107579;1288;22733;-81
2022/10/08 05:47:30;;;;;;;23.00;20.80;;;;;;;14.34;72.40;100537.31;107660;1285;21950;-80
2022/10/08 05:50:00;;;;;;;28.30;25.70;;;;;;;14.37;72.41;100536.83;107665;1291;25103;-80
2022/10/08 05:52:32;;;;;;;31.00;28.20;;;;;;;14.37;72.38;100538.90;107464;1292;21961;-81
2022/10/08 05:55:01;;;;;;;34.90;31.60;;;;;;;14.36;72.24;100535.96;107851;1289;22044;-81
2022/10/08 05:57:30;;;;;;;42.00;38.60;;;;;;;14.34;72.24;100531.36;107297;1290;21951;-81
2022/10/08 06:00:03;;;;;;;37.90;34.10;;;;;;;14.35;72.32;100529.75;107767;1291;23806;-82
2022/10/08 06:02:43;;;;;;;37.30;34.20;;;;;;;14.34;72.27;100530.48;107822;1286;21940;-81
2022/10/08 06:05:19;;;;;;;40.20;36.60;;;;;;;14.35;72.38;100529.40;108176;1286;23102;-81
2022/10/08 06:07:51;;;;;;;38.80;35.40;;;;;;;14.37;72.38;100532.59;107983;1286;22195;-80
2022/10/08 06:10:25;;;;;;;36.80;33.60;;;;;;;14.41;72.24;100536.58;108228;1286;23705;-82
2022/10/08 06:12:57;;;;;;;37.00;33.80;;;;;;;14.41;72.17;100537.12;108216;1284;22268;-83
2022/10/08 06:15:35;;;;;;;37.00;33.70;;;;;;;14.42;72.15;100534.61;107585;1286;22346;-81
2022/10/08 06:18:16;;;;;;;37.80;34.20;;;;;;;14.44;72.13;100536.27;107989;1286;22104;-81
2022/10/08 06:20:53;;;;;;;36.80;32.90;;;;;;;14.48;72.19;100538.74;107924;1286;23174;-83
2022/10/08 06:23:33;;;;;;;36.50;33.20;;;;;;;14.50;72.18;100538.42;107638;1292;23503;-82
2022/10/08 06:26:08;;;;;;;35.70;32.50;;;;;;;14.53;72.17;100540.77;107663;1291;23067;-81
2022/10/08 06:28:41;;;;;;;32.90;29.90;;;;;;;14.55;72.14;100538.00;107846;1292;22020;-82
2022/10/08 06:31:24;;;;;;;30.60;27.90;;;;;;;14.61;72.21;100543.66;107705;1291;22053;-83
2022/10/08 06:34:23;;;;;;;28.70;26.00;;;;;;;14.68;72.35;100546.64;107716;1280;21950;-82
2022/10/08 06:37:07;;;;;;;28.50;25.60;;;;;;;14.78;72.41;100549.83;108328;1286;22085;-82
2022/10/08 06:39:39;;;;;;;27.50;24.90;;;;;;;14.90;72.27;100547.25;108245;1273;22392;-79
2022/10/08 06:42:18;;;;;;;25.20;22.90;;;;;;;15.04;72.26;100547.06;108183;1280;24037;-80
2022/10/08 06:44:48;;;;;;;21.20;19.30;;;;;;;15.16;71.91;100547.46;108448;1280;22705;-79
2022/10/08 06:47:27;;;;;;;23.10;20.80;;;;;;;15.24;71.50;100549.66;108470;1278;21945;-80
2022/10/08 06:50:04;;;;;;;21.80;19.70;;;;;;;15.36;71.67;100550.39;108417;1280;23681;-79
2022/10/08 06:52:33;;;;;;;21.50;19.30;;;;;;;15.52;71.52;100548.63;108256;1283;23052;-80
2022/10/08 06:55:08;;;;;;;21.70;19.50;;;;;;;15.67;71.17;100555.21;107989;1286;22003;-80
2022/10/08 06:57:51;;;;;;;;;;;;;;;;;;;;;
2022/10/08 07:00:35;;;;;;;19.90;17.90;;;;;;;15.97;70.24;100556.54;108256;1286;21944;-81
2022/10/08 07:03:09;;;;;;;18.60;16.70;;;;;;;16.05;70.14;100550.96;108210;1283;22202;-80
2022/10/08 07:05:38;;;;;;;20.50;15.70;;;;;;;16.25;70.29;100544.19;108290;1286;23010;-80
2022/10/08 07:08:07;;;;;;;20.80;14.40;;;;;;;16.54;70.20;100541.46;108097;1287;22080;-79
2022/10/08 07:10:36;;;;;;;14.10;12.60;;;;;;;16.73;68.91;100545.42;108082;1281;21942;-80
2022/10/08 07:13:05;;;;;;;19.80;15.00;;;;;;;16.83;68.10;100547.45;108451;1280;21932;-80
2022/10/08 07:15:34;;;;;;;16.10;12.10;;;;;;;16.87;67.18;100545.45;108423;1280;21958;-81
2022/10/08 07:18:10;;;;;;;14.30;12.10;;;;;;;16.89;67.15;100538.32;108549;1281;21943;-81
2022/10/08 07:20:43;;;;;;;15.70;13.70;;;;;;;17.12;68.09;100535.46;108263;1281;23055;-82
2022/10/08 07:23:32;;;;;;;;;;;;;;;;;;;;;
2022/10/08 07:26:28;;;;;;;17.50;12.60;;;;;;;17.78;66.50;100532.20;108492;1280;23679;-81
2022/10/08 07:29:04;;;;;;;16.10;11.00;;;;;;;18.09;65.52;100529.31;108618;1280;21933;-89
2022/10/08 07:31:36;;;;;;;19.90;15.90;;;;;;;18.38;64.81;100528.77;108633;1280;22729;-80
2022/10/08 07:34:10;;;;;;;16.00;11.70;;;;;;;18.71;64.56;100527.80;108771;1280;21956;-82
2022/10/08 07:36:41;;;;;;;16.70;12.80;;;;;;;19.04;63.24;100529.91;108470;1282;21952;-83
2022/10/08 07:39:17;;;;;;;14.90;11.70;;;;;;;19.27;61.81;100524.93;108969;1281;21902;-84
2022/10/08 07:41:55;;;;;;;19.30;15.80;;;;;;;19.50;61.07;100530.02;108353;1286;21966;-83
2022/10/08 07:44:27;;;;;;;13.50;11.00;;;;;;;19.73;60.29;100528.92;108063;1286;22286;-81
2022/10/08 07:46:57;;;;;;;18.40;10.70;;;;;;;19.92;59.08;100526.95;107753;1292;21962;-83
2022/10/08 07:49:35;;;;;;;19.60;12.90;;;;;;;20.05;58.07;100525.10;107022;1294;21969;-83
2022/10/08 07:52:10;;;;;;;11.90;10.80;;;;;;;20.27;58.03;100525.55;107336;1294;23655;-83
2022/10/08 07:54:48;;;;;;;15.00;11.80;;;;;;;20.56;57.62;100525.68;107165;1295;24180;-83
2022/10/08 07:57:21;;;;;;;12.10;9.70;;;;;;;20.80;56.74;100526.64;107209;1295;23176;-84
2022/10/08 08:00:27;;;;;;;29.20;16.30;;;;;;;20.95;55.62;100523.05;107687;1289;21983;-83
2022/10/08 08:03:14;;;;;;;19.30;10.60;;;;;;;21.00;55.08;100522.25;107669;1289;21940;-85
2022/10/08 08:05:59;;;;;;;;;;;;;;;;;;;;;
2022/10/08 08:08:44;;;;;;;13.10;9.40;;;;;;;21.35;54.37;100523.39;108552;1281;21983;-84
2022/10/08 08:11:27;;;;;;;29.50;21.00;;;;;;;21.37;52.98;100521.96;108109;1286;21960;-85
2022/10/08 08:14:03;;;;;;;19.20;15.80;;;;;;;21.49;53.86;100522.50;107971;1286;22396;-84
2022/10/08 08:16:47;;;;;;;23.40;17.90;;;;;;;21.69;53.29;100524.55;107891;1284;21982;-87
2022/10/08 08:19:26;;;;;;;16.60;12.50;;;;;;;21.86;53.07;100525.34;108025;1286;21987;-83
2022/10/08 08:21:57;;;;;;;;;;;;;;;21.98;52.46;100518.65;108001;1285;22917;-81
2022/10/08 08:24:31;;;;;;;11.10;10.00;;;;;;;22.07;52.81;100519.14;108189;1289;22442;-82
2022/10/08 08:27:01;;;;;;;13.50;12.20;;;;;;;22.28;52.17;100521.88;107957;1286;21943;-83
2022/10/08 08:29:37;;;;;;;11.50;10.10;;;;;;;22.27;51.08;100525.15;108246;1280;22163;-83
2022/10/08 08:32:09;;;;;;;13.80;9.90;;;;;;;22.19;51.10;100521.84;107985;1286;21954;-81
2022/10/08 08:34:39;;;;;;;32.40;17.90;;;;;;;22.27;51.37;100515.70;107269;1286;1298331;-81
2022/10/08 08:37:08;;;;;;;19.80;13.60;;;;;;;22.33;50.89;100510.95;108234;1286;22118;-82
2022/10/08 08:39:40;;;;;;;16.40;9.80;;;;;;;22.42;50.98;100509.55;108226;1286;23713;-81
2022/10/08 08:42:42;;;;;;;15.70;8.70;;;;;;;22.60;50.42;100514.24;108348;1289;22003;-81
2022/10/08 08:45:32;;;;;;;11.40;8.70;;;;;;;22.60;49.89;100510.13;107806;1291;21954;-82
2022/10/08 08:48:27;;;;;;;18.80;8.90;;;;;;;22.82;50.40;100513.91;107940;1284;21934;-83
2022/10/08 08:50:58;;;;;;;15.20;9.00;;;;;;;23.02;49.65;100509.64;107775;1289;21968;-83
2022/10/08 08:53:30;;;;;;;15.00;9.00;;;;;;;22.90;47.98;100513.07;107716;1289;22106;-83
2022/10/08 08:56:04;;;;;;;11.70;6.90;;;;;;;22.57;48.15;100509.70;107439;1290;21964;-82
2022/10/08 08:59:04;;;;;;;17.50;7.60;;;;;;;22.42;48.95;100512.30;107460;1292;23636;-83
2022/10/08 09:01:42;;;;;;;12.10;9.80;;;;;;;22.36;49.36;100514.05;107441;1292;23738;-82
2022/10/08 09:04:29;;;;;;;12.90;8.10;;;;;;;22.31;49.23;100512.77;107193;1294;21942;-82
2022/10/08 09:07:00;;;;;;;12.20;8.50;;;;;;;22.20;49.20;100513.11;106780;1295;21964;-83
2022/10/08 09:09:36;;;;;;;9.20;8.00;;;;;;;22.17;49.46;100514.61;106466;1300;21981;-82
2022/10/08 09:12:30;;;;;;;10.00;6.30;;;;;;;22.14;49.64;100520.31;106199;1306;22240;-82
2022/10/08 09:15:00;;;;;;;10.80;6.50;;;;;;;22.14;49.04;100521.08;106236;1303;23788;-81
2022/10/08 09:17:37;;;;;;;17.60;8.00;;;;;;;22.06;48.65;100519.77;106530;1303;21979;-83
2022/10/08 09:20:14;;;;;;;13.90;8.40;;;;;;;22.01;48.92;100516.31;106619;1303;22836;-82
2022/10/08 09:22:44;;;;;;;11.10;6.70;;;;;;;22.04;49.11;100516.40;106718;1298;22047;-81
2022/10/08 09:25:20;;;;;;;18.30;7.80;;;;;;;22.10;49.15;100516.92;107172;1292;21938;-81
2022/10/08 09:27:51;;;;;;;11.70;6.00;;;;;;;22.16;48.93;100515.73;107630;1286;22604;-81
2022/10/08 09:30:23;;;;;;;10.30;6.90;;;;;;;22.21;48.64;100514.14;108196;1282;21952;-81
2022/10/08 09:33:00;;;;;;;9.70;6.60;;;;;;;22.21;48.38;100516.71;108626;1277;21943;-81
2022/10/08 09:35:42;;;;;;;;;;;;;;;22.12;48.14;100514.48;107970;1286;21926;-81
2022/10/08 09:38:30;;;;;;;13.70;5.30;;;;;;;21.94;48.46;100513.86;108239;1286;23717;-80
2022/10/08 09:41:19;;;;;;;9.30;5.80;;;;;;;22.07;49.33;100513.27;107998;1286;22286;-81
2022/10/08 09:44:18;;;;;;;10.20;5.30;;;;;;;22.33;49.13;100510.05;108191;1286;23616;-81
2022/10/08 09:47:05;;;;;;;11.30;5.70;;;;;;;22.41;48.23;100509.83;108153;1285;22244;-79
2022/10/08 09:49:38;;;;;;;14.40;7.10;;;;;;;22.36;47.93;100508.83;107988;1286;23464;-80
2022/10/08 09:52:24;;;;;;;14.10;8.00;;;;;;;22.26;48.04;100507.52;107937;1286;22592;-81
2022/10/08 09:55:07;;;;;;;17.20;7.50;;;;;;;22.16;48.35;100508.80;108370;1280;21958;-81
2022/10/08 09:57:46;;;;;;;9.90;6.50;;;;;;;22.14;48.69;100507.40;108664;1280;23149;-82
2022/10/08 10:00:29;;;;;;;10.40;6.50;;;;;;;22.12;48.40;100504.57;108406;1284;21929;-82
2022/10/08 10:03:16;;;;;;;12.70;6.50;;;;;;;21.95;48.22;100495.55;108393;1280;21927;-81
2022/10/08 10:05:52;;;;;;;9.70;5.40;;;;;;;21.91;48.76;100499.08;108574;1280;23771;-82
2022/10/08 10:08:47;;;;;;;8.40;5.60;;;;;;;21.86;48.24;100498.06;108468;1281;23136;-83
2022/10/08 10:11:53;;;;;;;10.60;7.10;;;;;;;21.73;48.46;100493.63;108212;1280;22011;-81
2022/10/08 10:14:51;;;;;;;12.20;7.30;;;;;;;21.66;48.89;100492.25;108102;1287;21972;-82
2022/10/08 10:17:41;;;;;;;10.00;6.30;;;;;;;21.61;49.13;100496.77;108010;1286;21969;-82
2022/10/08 10:20:28;;;;;;;9.80;6.20;;;;;;;21.43;48.95;100494.63;107593;1292;22005;-82
2022/10/08 10:23:11;;;;;;;10.70;6.50;;;;;;;21.26;49.24;100495.77;107620;1294;24337;-81
2022/10/08 10:26:15;;;;;;;14.20;6.70;;;;;;;21.11;49.63;100497.91;107636;1292;23652;-81
2022/10/08 10:28:52;;;;;;;10.60;7.30;;;;;;;20.97;50.17;100504.28;107585;1292;23485;-81
2022/10/08 10:31:27;;;;;;;16.20;8.00;;;;;;;20.87;50.36;100504.55;107535;1295;23042;-82
2022/10/08 10:34:06;;;;;;;16.40;8.00;;;;;;;20.83;50.71;100503.83;107532;1295;22679;-81
2022/10/08 10:36:47;;;;;;;13.70;7.50;;;;;;;20.78;50.68;100506.18;107569;1281;21981;-82
2022/10/08 10:39:41;;;;;;;;;;;;;;;20.60;50.51;100508.95;107810;1289;21924;-82
2022/10/08 10:42:42;;;;;;;15.10;8.10;;;;;;;20.29;51.01;100508.25;107988;1284;21969;-81
2022/10/08 10:45:26;;;;;;;12.10;8.70;;;;;;;20.17;51.61;100511.83;108210;1289;21976;-82
2022/10/08 10:47:56;;;;;;;12.90;8.50;;;;;;;20.16;51.90;100507.88;107411;1292;21958;-80
2022/10/08 10:50:41;;;;;;;12.70;8.40;;;;;;;20.16;52.03;100505.59;107662;1292;21972;-81
2022/10/08 10:53:29;;;;;;;10.20;8.00;;;;;;;20.14;52.01;100508.71;108256;1284;21951;-81
2022/10/08 10:56:19;;;;;;;13.40;8.50;;;;;;;20.13;52.09;100506.36;108265;1286;21948;-81
2022/10/08 10:59:38;;;;;;;18.10;8.70;;;;;;;20.07;52.04;100500.40;107992;1283;21956;-81
2022/10/08 11:02:32;;;;;;;21.50;8.60;;;;;;;20.01;52.41;100505.42;108338;1285;21957;-82
2022/10/08 11:05:26;;;;;;;15.50;8.80;;;;;;;20.02;52.42;100508.38;108045;1286;22036;-81
2022/10/08 11:08:57;;;;;;;23.20;8.60;;;;;;;20.02;52.37;100508.70;108323;1280;22099;-82
2022/10/08 11:11:47;;;;;;;21.20;8.60;;;;;;;20.02;52.39;100509.23;108143;1289;21964;-81
2022/10/08 11:14:47;;;;;;;12.00;8.10;;;;;;;20.03;52.24;100505.50;107950;1288;22096;-83
2022/10/08 11:17:29;;;;;;;17.90;9.20;;;;;;;20.02;52.25;100499.50;108101;1287;23084;-82
2022/10/08 11:20:20;;;;;;;11.50;8.90;;;;;;;20.01;52.22;100495.89;107703;1292;21950;-81
2022/10/08 11:24:19;;;;;;;15.40;9.60;;;;;;;20.01;52.45;100497.71;107267;1295;23039;-81
2022/10/08 11:27:26;;;;;;;17.10;9.70;;;;;;;19.95;52.47;100491.62;105837;1307;21977;-81
2022/10/08 11:30:13;;;;;;;17.00;8.60;;;;;;;19.89;52.74;100483.55;106058;1306;22434;-82
2022/10/08 11:32:52;;;;;;;6.50;5.80;;;;;;;19.87;52.71;100485.11;106107;1307;23634;-83
2022/10/08 11:35:52;;;;;;;13.60;9.00;;;;;;;19.87;52.70;100478.95;105983;1309;23906;-81
2022/10/08 11:38:48;;;;;;;23.30;18.20;;;;;;;19.86;52.96;100481.27;105681;1309;21995;-82
2022/10/08 11:42:04;;;;;;;12.00;9.80;;;;;;;19.89;53.06;100472.77;105693;1309;23795;-81
2022/10/08 11:44:36;;;;;;;11.30;9.40;;;;;;;19.88;53.09;100467.89;105854;1304;21996;-81
2022/10/08 11:47:40;;;;;;;17.00;13.20;;;;;;;19.90;53.23;100466.20;105931;1309;21975;-81
2022/10/08 11:50:35;;;;;;;15.10;10.00;;;;;;;19.90;53.33;100467.23;106128;1306;22030;-81
2022/10/08 11:53:21;;;;;;;12.20;9.70;;;;;;;19.91;53.22;100462.59;105846;1302;21965;-81
2022/10/08 11:56:09;;;;;;;13.80;9.40;;;;;;;19.91;53.20;100460.14;106032;1306;23148;-81
2022/10/08 11:58:56;;;;;;;11.40;9.70;;;;;;;19.95;53.30;100456.27;106205;1300;21972;-81
2022/10/08 12:01:25;;;;;;;10.90;9.50;;;;;;;20.01;53.34;100457.02;106577;1298;23159;-81
2022/10/08 12:04:07;;;;;;;12.40;9.40;;;;;;;20.05;53.32;100450.91;107217;1297;23190;-81
2022/10/08 12:06:36;;;;;;;16.50;11.10;;;;;;;20.06;53.01;100440.77;107125;1297;22079;-82
2022/10/08 12:09:20;;;;;;;11.80;9.90;;;;;;;20.06;53.07;100437.07;107334;1297;21962;-81
2022/10/08 12:11:53;;;;;;;13.40;11.70;;;;;;;20.04;53.02;100430.71;106836;1295;23103;-81